Time;durP1;ratioP1;P1;durP2;ratioP2;P2;SDS_P1;SDS_P2;PMS_P1;PMS_P2;Temp;Humidity;BMP_temperature;BMP_pressure;BME280_temperature;BME280_humidity;BME280_pressure;Samples;Min_cycle;Max_cycle;Signal;HPM_P1;HPM_P2
2023/07/13 00:01:51;;;;;;;14.30;13.60;;;21.20;1.00;;;;;;5072695;28;20435;-46
2023/07/13 00:04:18;;;;;;;14.50;13.70;;;21.20;1.00;;;;;;5066769;28;20529;-46
2023/07/13 00:06:45;;;;;;;13.63;13.03;;;21.20;1.00;;;;;;5075748;28;20446;-48
2023/07/13 00:09:13;;;;;;;13.93;13.13;;;21.20;1.00;;;;;;5082163;28;20429;-44
2023/07/13 00:11:39;;;;;;;13.20;12.50;;;21.20;1.00;;;;;;5072663;28;20551;-49
2023/07/13 00:14:05;;;;;;;13.47;12.87;;;21.20;1.00;;;;;;5073887;28;20422;-50
2023/07/13 00:16:31;;;;;;;13.73;12.93;;;21.10;1.00;;;;;;5068638;28;20464;-51
2023/07/13 00:18:56;;;;;;;14.13;13.33;;;21.10;1.00;;;;;;5077110;28;20232;-51
2023/07/13 00:21:22;;;;;;;13.90;13.20;;;21.20;1.00;;;;;;5080300;28;20181;-49
2023/07/13 00:23:49;;;;;;;14.50;13.80;;;21.20;1.00;;;;;;5080647;28;20271;-50
2023/07/13 00:26:14;;;;;;;13.80;13.10;;;21.20;1.00;;;;;;5080689;28;20793;-46
2023/07/13 00:28:41;;;;;;;14.27;13.57;;;21.30;1.00;;;;;;5080869;28;20419;-48
2023/07/13 00:31:08;;;;;;;14.27;13.30;;;21.20;1.00;;;;;;5079877;28;20177;-50
2023/07/13 00:33:33;;;;;;;13.50;12.80;;;21.20;1.00;;;;;;5074036;28;20418;-54
2023/07/13 00:35:59;;;;;;;14.47;13.77;;;21.30;1.00;;;;;;5079783;28;20430;-50
2023/07/13 00:38:24;;;;;;;15.83;15.03;;;21.20;1.00;;;;;;5079624;28;20239;-51
2023/07/13 00:40:50;;;;;;;18.50;17.40;;;21.00;1.00;;;;;;5068493;28;20671;-47
2023/07/13 00:43:19;;;;;;;22.40;21.00;;;20.80;98.90;;;;;;5081359;28;20200;-50
2023/07/13 00:45:45;;;;;;;22.40;20.90;;;20.40;99.90;;;;;;5075108;28;20258;-46
2023/07/13 00:48:19;;;;;;;21.80;20.50;;;19.90;1.00;;;;;;5075686;28;20815;-47
2023/07/13 00:50:48;;;;;;;21.80;20.50;;;19.40;99.90;;;;;;5081370;28;20494;-47
2023/07/13 00:53:14;;;;;;;21.70;20.50;;;19.10;1.00;;;;;;5076771;28;20439;-53
2023/07/13 00:55:40;;;;;;;21.30;20.10;;;18.90;1.00;;;;;;5069583;28;20411;-44
2023/07/13 00:58:06;;;;;;;21.30;20.10;;;18.70;1.00;;;;;;5074849;28;20636;-47
2023/07/13 01:00:37;;;;;;;21.93;20.63;;;18.50;1.00;;;;;;5077946;28;20641;-44
2023/07/13 01:03:04;;;;;;;21.50;20.10;;;18.30;1.00;;;;;;5070960;28;20518;-42
2023/07/13 01:05:32;;;;;;;20.97;19.77;;;18.20;32.40;;;;;;5069370;28;20410;-49
2023/07/13 01:08:00;;;;;;;21.17;19.83;;;18.20;99.40;;;;;;5072349;28;20434;-46
2023/07/13 01:10:27;;;;;;;21.50;20.30;;;18.20;99.90;;;;;;5075156;28;20488;-51
2023/07/13 01:12:53;;;;;;;20.70;19.40;;;18.10;99.90;;;;;;5065343;28;20440;-47
2023/07/13 01:15:41;;;;;;;21.30;19.80;;;18.10;99.90;;;;;;5063905;28;20861;-48
2023/07/13 01:18:14;;;;;;;20.90;19.60;;;18.10;99.90;;;;;;5071634;28;20468;-51
2023/07/13 01:20:40;;;;;;;21.33;19.83;;;18.10;99.90;;;;;;5067952;28;20431;-49
2023/07/13 01:23:08;;;;;;;23.40;22.00;;;17.90;99.90;;;;;;5070042;28;20445;-50
2023/07/13 01:25:35;;;;;;;20.33;18.93;;;17.80;99.90;;;;;;5070246;28;20956;-49
2023/07/13 01:28:02;;;;;;;20.83;19.43;;;17.70;99.90;;;;;;5077242;28;20412;-46
2023/07/13 01:30:28;;;;;;;20.27;18.87;;;17.60;99.90;;;;;;5080411;28;20415;-44
2023/07/13 01:32:54;;;;;;;20.73;19.23;;;17.60;99.90;;;;;;5080842;28;20447;-45
2023/07/13 01:35:20;;;;;;;20.37;19.07;;;17.60;99.90;;;;;;5073851;28;20426;-44
2023/07/13 01:37:45;;;;;;;19.40;18.20;;;17.50;99.90;;;;;;5066931;28;20601;-44
2023/07/13 01:40:12;;;;;;;20.30;18.80;;;17.40;99.90;;;;;;5071720;28;20224;-43
2023/07/13 01:42:38;;;;;;;19.80;18.30;;;17.40;99.90;;;;;;5070456;28;20193;-45
2023/07/13 01:45:04;;;;;;;19.20;18.00;;;17.40;99.90;;;;;;5080081;28;21038;-48
2023/07/13 01:47:31;;;;;;;20.70;19.20;;;17.40;99.90;;;;;;5080622;28;20476;-45
2023/07/13 01:49:57;;;;;;;20.53;19.03;;;17.40;99.90;;;;;;5080121;28;20859;-44
2023/07/13 01:52:23;;;;;;;20.17;18.87;;;17.40;99.90;;;;;;5080240;28;20900;-46
2023/07/13 01:54:49;;;;;;;20.47;19.17;;;17.40;99.90;;;;;;5060020;28;20426;-44
2023/07/13 01:57:14;;;;;;;19.77;18.57;;;17.40;99.90;;;;;;5076395;28;20480;-44
2023/07/13 01:59:40;;;;;;;19.47;18.17;;;17.50;99.90;;;;;;5080333;28;20992;-43
2023/07/13 02:02:06;;;;;;;21.27;19.80;;;17.50;99.90;;;;;;5079677;28;20198;-42
2023/07/13 02:04:32;;;;;;;19.97;18.77;;;17.60;99.90;;;;;;5078937;28;21002;-44
2023/07/13 02:06:57;;;;;;;20.60;19.17;;;17.60;99.90;;;;;;5065904;28;20188;-43
2023/07/13 02:09:23;;;;;;;20.20;18.80;;;17.50;99.90;;;;;;5079629;28;20430;-43
2023/07/13 02:11:49;;;;;;;19.77;18.07;;;17.50;99.90;;;;;;5074278;28;20184;-41
2023/07/13 02:14:15;;;;;;;21.00;19.40;;;17.50;99.90;;;;;;5079549;28;20180;-42
2023/07/13 02:16:41;;;;;;;20.50;18.80;;;17.50;99.90;;;;;;5079770;28;20635;-47
2023/07/13 02:19:07;;;;;;;19.80;18.37;;;17.60;99.90;;;;;;5079091;28;20431;-44
2023/07/13 02:21:33;;;;;;;21.17;19.57;;;17.60;99.90;;;;;;5078120;28;20772;-43
2023/07/13 02:23:59;;;;;;;20.70;19.33;;;17.50;99.90;;;;;;5064589;28;20454;-44
2023/07/13 02:26:25;;;;;;;21.80;20.10;;;17.50;99.90;;;;;;5064890;28;20349;-47
2023/07/13 02:28:51;;;;;;;20.47;19.17;;;17.50;99.90;;;;;;5068130;28;20473;-42
2023/07/13 02:31:17;;;;;;;21.53;19.93;;;17.50;99.90;;;;;;5060570;28;20436;-42
2023/07/13 02:33:43;;;;;;;20.70;19.10;;;17.50;99.90;;;;;;5065143;28;20233;-49
2023/07/13 02:36:09;;;;;;;21.67;20.17;;;17.40;99.90;;;;;;5060152;28;21039;-46
2023/07/13 02:38:36;;;;;;;21.87;20.37;;;17.40;99.90;;;;;;5075662;28;20556;-45
2023/07/13 02:41:03;;;;;;;21.53;20.10;;;17.40;99.90;;;;;;5073192;28;20426;-46
2023/07/13 02:43:29;;;;;;;21.13;19.63;;;17.40;99.90;;;;;;5079723;28;20531;-44
2023/07/13 02:45:55;;;;;;;20.63;19.23;;;17.40;99.90;;;;;;5078329;28;20483;-45
2023/07/13 02:48:21;;;;;;;20.47;19.10;;;17.40;99.90;;;;;;5077856;28;20584;-44
2023/07/13 02:50:46;;;;;;;21.50;19.90;;;17.40;99.90;;;;;;5079956;28;20188;-43
2023/07/13 02:53:12;;;;;;;22.07;20.53;;;17.40;99.90;;;;;;5078782;28;20346;-46
2023/07/13 02:55:38;;;;;;;21.70;20.10;;;17.40;99.90;;;;;;5076879;28;20180;-41
2023/07/13 02:58:03;;;;;;;21.13;19.63;;;17.30;99.90;;;;;;5079000;28;20180;-49
2023/07/13 03:00:29;;;;;;;21.27;19.77;;;17.30;99.90;;;;;;5071312;28;20439;-42
2023/07/13 03:02:57;;;;;;;22.00;20.40;;;17.20;99.90;;;;;;5069518;28;20917;-43
2023/07/13 03:05:23;;;;;;;21.53;19.77;;;17.30;99.90;;;;;;5069592;28;20189;-45
2023/07/13 03:07:49;;;;;;;20.83;19.47;;;17.30;99.90;;;;;;5078786;28;21272;-42
2023/07/13 03:10:16;;;;;;;20.87;19.37;;;17.30;99.90;;;;;;5078943;28;20441;-44
2023/07/13 03:12:41;;;;;;;20.93;19.50;;;17.20;99.90;;;;;;5078473;28;21001;-45
2023/07/13 03:15:07;;;;;;;20.80;19.40;;;17.20;99.90;;;;;;5077645;28;20423;-45
2023/07/13 03:17:33;;;;;;;21.30;19.80;;;17.30;99.90;;;;;;5079136;28;20953;-41
2023/07/13 03:19:58;;;;;;;21.17;19.67;;;17.20;99.90;;;;;;5068245;28;20882;-47
2023/07/13 03:22:24;;;;;;;20.80;19.50;;;17.30;99.90;;;;;;5076396;28;20184;-46
2023/07/13 03:24:50;;;;;;;20.30;18.80;;;17.20;99.90;;;;;;5078991;28;20695;-45
2023/07/13 03:27:17;;;;;;;20.40;19.03;;;17.20;99.90;;;;;;5078736;28;20212;-44
2023/07/13 03:29:43;;;;;;;20.23;18.87;;;17.30;99.90;;;;;;5065026;28;20246;-44
2023/07/13 03:32:09;;;;;;;19.50;18.10;;;17.20;99.90;;;;;;5067887;28;20439;-47
2023/07/13 03:34:35;;;;;;;19.87;18.67;;;17.20;99.90;;;;;;5068445;28;20441;-47
2023/07/13 03:37:00;;;;;;;20.37;18.97;;;17.20;99.90;;;;;;5060027;28;20504;-42
2023/07/13 03:39:26;;;;;;;20.03;18.60;;;17.20;99.90;;;;;;5073607;28;20180;-43
2023/07/13 03:41:52;;;;;;;19.80;18.53;;;17.20;99.90;;;;;;5078594;28;20263;-46
2023/07/13 03:44:18;;;;;;;20.10;18.73;;;17.20;99.90;;;;;;5078977;28;20436;-44
2023/07/13 03:46:44;;;;;;;19.50;18.20;;;17.20;99.90;;;;;;5078848;28;20414;-44
2023/07/13 03:49:10;;;;;;;19.73;18.43;;;17.20;99.90;;;;;;5078485;28;20470;-44
2023/07/13 03:51:36;;;;;;;20.30;18.70;;;17.20;99.90;;;;;;5077366;28;20947;-43
2023/07/13 03:54:02;;;;;;;18.60;17.40;;;17.30;99.90;;;;;;5068086;28;20431;-46
2023/07/13 03:56:30;;;;;;;18.23;17.00;;;17.20;99.90;;;;;;5077020;28;20193;-44
2023/07/13 03:58:55;;;;;;;18.97;17.57;;;17.30;99.90;;;;;;5076370;28;20446;-49
2023/07/13 04:01:22;;;;;;;18.50;17.20;;;17.30;99.90;;;;;;5081889;28;20842;-44
2023/07/13 04:03:48;;;;;;;19.03;17.63;;;17.30;99.90;;;;;;5081086;28;20288;-42
2023/07/13 04:06:20;;;;;;;18.20;17.00;;;17.30;99.90;;;;;;5082175;28;20509;-49
2023/07/13 04:08:51;;;;;;;19.07;17.77;;;17.40;99.90;;;;;;5081772;28;20810;-46
2023/07/13 04:11:19;;;;;;;18.50;17.40;;;17.40;99.90;;;;;;5066454;28;20418;-45
2023/07/13 04:13:45;;;;;;;17.93;16.73;;;17.40;99.90;;;;;;5077771;28;20978;-45
2023/07/13 04:16:11;;;;;;;18.80;17.50;;;17.40;99.90;;;;;;5082208;28;20411;-46
2023/07/13 04:18:37;;;;;;;17.53;16.17;;;17.40;99.90;;;;;;5081839;28;20905;-47
2023/07/13 04:21:02;;;;;;;18.20;16.90;;;17.50;99.90;;;;;;5082035;28;21026;-46
2023/07/13 04:23:28;;;;;;;17.57;16.40;;;17.60;99.90;;;;;;5071532;28;20180;-44
2023/07/13 04:25:54;;;;;;;18.40;17.17;;;17.70;99.90;;;;;;5064754;28;20566;-48
2023/07/13 04:28:24;;;;;;;18.33;17.03;;;17.80;99.90;;;;;;5063764;28;20208;-46
2023/07/13 04:30:50;;;;;;;17.20;16.03;;;17.90;99.90;;;;;;5082000;28;20207;-42
2023/07/13 04:33:22;;;;;;;18.13;16.83;;;18.00;99.90;;;;;;5075603;28;20430;-50
2023/07/13 04:35:56;;;;;;;16.80;15.70;;;18.10;99.90;;;;;;5070949;28;20491;-41
2023/07/13 04:38:28;;;;;;;17.37;16.10;;;18.10;99.90;;;;;;5077352;28;20430;-43
2023/07/13 04:41:01;;;;;;;17.73;16.60;;;18.10;99.90;;;;;;5075493;28;20453;-47
2023/07/13 04:43:27;;;;;;;17.43;16.33;;;18.10;99.90;;;;;;5081510;28;20514;-47
2023/07/13 04:45:53;;;;;;;17.03;15.93;;;18.20;99.90;;;;;;5081498;28;20423;-44
2023/07/13 04:48:19;;;;;;;18.77;17.33;;;18.30;99.90;;;;;;5081590;28;21039;-43
2023/07/13 04:50:46;;;;;;;18.03;16.80;;;18.30;99.90;;;;;;5078423;28;20413;-47
2023/07/13 04:53:12;;;;;;;17.20;16.20;;;18.30;99.90;;;;;;5069365;28;21143;-46
2023/07/13 04:55:38;;;;;;;17.60;16.50;;;18.40;99.90;;;;;;5077485;28;20600;-46
2023/07/13 04:58:04;;;;;;;18.10;16.93;;;18.40;99.90;;;;;;5081028;28;20603;-46
2023/07/13 05:00:30;;;;;;;17.80;16.70;;;18.40;99.90;;;;;;5075813;28;20861;-45
2023/07/13 05:02:57;;;;;;;18.27;17.17;;;18.40;99.90;;;;;;5071342;28;20472;-45
2023/07/13 05:05:25;;;;;;;17.90;16.87;;;18.50;99.90;;;;;;5074027;28;20740;-48
2023/07/13 05:07:51;;;;;;;16.27;15.37;;;18.50;99.90;;;;;;5080869;28;20476;-47
2023/07/13 05:10:17;;;;;;;17.70;16.50;;;18.50;99.90;;;;;;5080461;28;20457;-44
2023/07/13 05:12:43;;;;;;;17.67;16.37;;;18.50;99.90;;;;;;5080608;28;20461;-44
2023/07/13 05:15:11;;;;;;;18.50;17.40;;;18.40;99.90;;;;;;5081039;28;20422;-44
2023/07/13 05:17:38;;;;;;;17.53;16.40;;;18.50;99.90;;;;;;5079440;28;20199;-48
2023/07/13 05:20:05;;;;;;;17.93;16.80;;;18.50;99.90;;;;;;5080598;28;20431;-47
2023/07/13 05:22:31;;;;;;;17.90;16.53;;;18.60;99.90;;;;;;5067184;28;20451;-49
2023/07/13 05:24:56;;;;;;;18.40;17.20;;;18.50;99.90;;;;;;5069852;28;20490;-43
2023/07/13 05:27:23;;;;;;;17.63;16.50;;;18.50;99.90;;;;;;5080762;28;20418;-46
2023/07/13 05:29:49;;;;;;;18.40;17.30;;;18.60;99.90;;;;;;5081194;28;20179;-48
2023/07/13 05:32:15;;;;;;;18.60;17.40;;;18.70;99.90;;;;;;5073188;28;20759;-51
2023/07/13 05:34:40;;;;;;;18.60;17.30;;;18.70;99.90;;;;;;5078330;28;20415;-51
2023/07/13 05:37:07;;;;;;;18.47;17.37;;;18.70;99.90;;;;;;5073020;28;20172;-49
2023/07/13 05:39:33;;;;;;;18.53;17.43;;;18.90;99.90;;;;;;5068287;28;20250;-49
2023/07/13 05:41:58;;;;;;;18.20;17.10;;;18.80;99.90;;;;;;5078817;28;20426;-51
2023/07/13 05:44:24;;;;;;;18.50;17.20;;;18.70;99.90;;;;;;5078248;28;20180;-51
2023/07/13 05:46:49;;;;;;;18.03;16.93;;;18.70;99.90;;;;;;5080198;28;20970;-55
2023/07/13 05:49:15;;;;;;;18.80;17.60;;;18.80;99.90;;;;;;5080165;28;20312;-52
2023/07/13 05:51:41;;;;;;;18.37;16.67;;;18.90;99.90;;;;;;5066503;28;20207;-52
2023/07/13 05:54:06;;;;;;;17.87;16.77;;;18.90;99.90;;;;;;5067747;28;20639;-49
2023/07/13 05:56:32;;;;;;;18.73;17.47;;;18.90;95.20;;;;;;5080350;28;20269;-50
2023/07/13 05:58:57;;;;;;;18.13;17.03;;;19.00;86.20;;;;;;5080023;28;20271;-49
2023/07/13 06:01:23;;;;;;;17.93;16.70;;;19.00;91.30;;;;;;5080087;28;20188;-50
2023/07/13 06:03:49;;;;;;;19.23;17.90;;;19.10;96.90;;;;;;5067322;28;20185;-49
2023/07/13 06:06:16;;;;;;;18.70;17.40;;;19.10;97.50;;;;;;5079536;28;20395;-47
2023/07/13 06:08:41;;;;;;;18.50;17.40;;;19.20;99.90;;;;;;5080484;28;20460;-49
2023/07/13 06:11:19;;;;;;;19.20;17.97;;;19.20;99.90;;;;;;5080067;28;21492;-46
2023/07/13 06:13:45;;;;;;;20.00;18.63;;;19.20;94.20;;;;;;5079787;28;20206;-47
2023/07/13 06:16:11;;;;;;;18.27;17.10;;;19.10;90.60;;;;;;5079971;28;20776;-50
2023/07/13 06:18:38;;;;;;;19.07;17.80;;;19.10;95.50;;;;;;5068179;28;20431;-47
2023/07/13 06:21:11;;;;;;;18.87;17.77;;;19.20;96.10;;;;;;5072318;28;20457;-48
2023/07/13 06:23:37;;;;;;;19.93;18.63;;;19.20;94.80;;;;;;5078836;28;20562;-43
2023/07/13 06:26:03;;;;;;;19.60;18.40;;;19.10;97.00;;;;;;5079660;28;20817;-48
2023/07/13 06:28:31;;;;;;;20.20;18.90;;;19.20;99.80;;;;;;5071023;28;20463;-49
2023/07/13 06:30:57;;;;;;;20.43;18.97;;;19.20;99.90;;;;;;5073101;28;20594;-52
2023/07/13 06:33:23;;;;;;;20.40;19.10;;;19.30;99.90;;;;;;5079407;28;20410;-49
2023/07/13 06:35:48;;;;;;;19.40;18.20;;;19.40;99.90;;;;;;5079502;28;20414;-47
2023/07/13 06:38:14;;;;;;;20.60;19.20;;;19.50;99.90;;;;;;5079463;28;20192;-49
2023/07/13 06:40:40;;;;;;;20.50;19.20;;;19.60;99.90;;;;;;5070748;28;20655;-52
2023/07/13 06:43:06;;;;;;;20.97;19.67;;;19.70;91.70;;;;;;5075273;28;20606;-51
2023/07/13 06:45:40;;;;;;;20.57;19.17;;;19.80;55.20;;;;;;5077994;28;20429;-47
2023/07/13 06:48:05;;;;;;;20.60;19.20;;;19.90;30.00;;;;;;5079031;28;20216;-47
2023/07/13 06:50:31;;;;;;;19.77;18.37;;;20.00;19.10;;;;;;5079226;28;20791;-49
2023/07/13 06:52:57;;;;;;;19.60;18.40;;;20.10;25.30;;;;;;5078224;28;20183;-52
2023/07/13 06:55:22;;;;;;;19.07;17.97;;;20.20;15.80;;;;;;5070525;28;20229;-52
2023/07/13 06:57:48;;;;;;;20.50;19.03;;;20.40;1.00;;;;;;5079627;28;20272;-56
2023/07/13 07:00:14;;;;;;;18.83;17.70;;;20.50;1.00;;;;;;5069103;28;20351;-52
2023/07/13 07:02:40;;;;;;;18.73;17.53;;;20.60;1.00;;;;;;5075974;28;20506;-53
2023/07/13 07:05:05;;;;;;;18.40;17.30;;;20.70;1.00;;;;;;5069413;28;21024;-53
2023/07/13 07:07:31;;;;;;;18.60;17.37;;;21.00;1.00;;;;;;5079292;28;20570;-50
2023/07/13 07:09:56;;;;;;;17.77;16.77;;;21.20;1.00;;;;;;5069668;28;20181;-48
2023/07/13 07:12:22;;;;;;;17.73;16.47;;;21.40;1.00;;;;;;5074237;28;20184;-50
2023/07/13 07:14:48;;;;;;;17.53;16.50;;;21.60;1.00;;;;;;5079246;28;20191;-51
2023/07/13 07:17:13;;;;;;;18.43;17.13;;;21.80;1.00;;;;;;5076165;28;20180;-53
2023/07/13 07:19:40;;;;;;;16.67;15.77;;;21.90;99.90;;;;;;5068730;28;20181;-53
2023/07/13 07:22:06;;;;;;;16.40;15.50;;;22.10;99.90;;;;;;5078989;28;20631;-50
2023/07/13 07:24:31;;;;;;;17.13;16.03;;;22.20;99.90;;;;;;5078865;28;20466;-53
2023/07/13 07:26:57;;;;;;;17.07;15.87;;;22.20;1.00;;;;;;5079003;28;20276;-50
2023/07/13 07:29:25;;;;;;;16.70;15.70;;;22.30;99.90;;;;;;5071129;28;20267;-52
2023/07/13 07:31:50;;;;;;;17.13;16.13;;;22.40;1.00;;;;;;5065602;28;20176;-54
2023/07/13 07:34:16;;;;;;;16.77;15.87;;;22.50;1.00;;;;;;5070552;28;20783;-44
2023/07/13 07:36:41;;;;;;;16.80;15.80;;;22.60;1.00;;;;;;5082544;28;20573;-45
2023/07/13 07:39:07;;;;;;;16.17;15.17;;;22.60;1.00;;;;;;5082768;28;20168;-44
2023/07/13 07:41:32;;;;;;;16.70;15.80;;;22.80;1.00;;;;;;5082414;28;20200;-44
2023/07/13 07:43:58;;;;;;;16.50;15.30;;;22.70;1.00;;;;;;5082738;28;20647;-46
2023/07/13 07:46:24;;;;;;;15.53;14.70;;;22.80;1.00;;;;;;5075789;28;20181;-42
2023/07/13 07:48:49;;;;;;;15.97;15.07;;;22.80;1.00;;;;;;5071183;28;20666;-42
2023/07/13 07:51:15;;;;;;;15.70;14.90;;;22.80;1.00;;;;;;5083183;28;20181;-44
2023/07/13 07:53:41;;;;;;;15.70;14.80;;;22.80;1.00;;;;;;5075022;28;20403;-44
2023/07/13 07:56:08;;;;;;;15.50;14.70;;;23.00;1.00;;;;;;5076206;28;20294;-48
2023/07/13 07:58:33;;;;;;;15.87;15.07;;;23.10;52.30;;;;;;5071734;28;20418;-49
2023/07/13 08:01:04;;;;;;;15.57;14.57;;;23.20;1.00;;;;;;5068347;28;20882;-45
2023/07/13 08:03:29;;;;;;;16.13;14.93;;;23.30;99.90;;;;;;5060573;28;20177;-45
2023/07/13 08:05:55;;;;;;;15.60;14.70;;;23.50;99.90;;;;;;5063086;28;20869;-48
2023/07/13 08:08:21;;;;;;;15.90;15.10;;;23.70;1.00;;;;;;5077205;28;20230;-48
2023/07/13 08:10:46;;;;;;;15.10;14.23;;;23.80;1.00;;;;;;5082332;28;20734;-46
2023/07/13 08:13:12;;;;;;;14.87;14.17;;;23.90;1.00;;;;;;5081820;28;20242;-47
2023/07/13 08:15:37;;;;;;;15.87;15.07;;;24.00;1.00;;;;;;5082004;28;20283;-46
2023/07/13 08:18:03;;;;;;;15.67;14.77;;;24.20;1.00;;;;;;5082143;28;20185;-45
2023/07/13 08:20:29;;;;;;;15.23;14.43;;;24.40;1.00;;;;;;5081813;28;20271;-43
2023/07/13 08:22:55;;;;;;;15.17;14.27;;;24.60;1.00;;;;;;5081170;28;20188;-48
2023/07/13 08:25:21;;;;;;;14.33;13.70;;;24.80;99.90;;;;;;5081644;28;20529;-45
2023/07/13 08:27:47;;;;;;;14.50;13.80;;;24.90;99.90;;;;;;5081867;28;20257;-43
2023/07/13 08:30:13;;;;;;;14.00;13.30;;;24.80;99.90;;;;;;5068225;28;20435;-44
2023/07/13 08:32:38;;;;;;;14.77;13.97;;;24.60;99.90;;;;;;5063654;28;20387;-45
2023/07/13 08:35:05;;;;;;;14.60;13.90;;;24.60;99.90;;;;;;5081055;28;20176;-46
2023/07/13 08:37:31;;;;;;;14.70;13.70;;;24.60;99.90;;;;;;5082131;28;20176;-44
2023/07/13 08:39:56;;;;;;;14.30;13.60;;;24.70;99.90;;;;;;5081310;28;20884;-48
2023/07/13 08:42:41;;;;;;;14.83;14.13;;;24.80;99.90;;;;;;5081886;28;20666;-47
2023/07/13 08:45:21;;;;;;;15.10;14.30;;;24.90;99.90;;;;;;5072298;28;20185;-43
2023/07/13 08:48:00;;;;;;;14.77;13.77;;;25.10;99.90;;;;;;5078731;28;20462;-51
2023/07/13 08:50:34;;;;;;;14.27;13.47;;;25.40;99.90;;;;;;5081437;28;20408;-50
2023/07/13 08:53:02;;;;;;;14.80;14.10;;;25.60;99.90;;;;;;5079542;28;20449;-48
2023/07/13 08:55:33;;;;;;;13.63;12.93;;;25.70;99.90;;;;;;5075791;28;20406;-42
2023/07/13 08:58:12;;;;;;;15.03;14.23;;;26.20;99.90;;;;;;5074679;28;20961;-48
2023/07/13 09:01:15;;;;;;;14.77;14.00;;;26.50;99.90;;;;;;5078069;28;20415;-50
2023/07/13 09:03:57;;;;;;;15.47;14.67;;;26.60;99.90;;;;;;5052953;28;20484;-48
2023/07/13 09:06:50;;;;;;;15.07;14.27;;;26.80;99.90;;;;;;5081427;28;20413;-47
2023/07/13 09:09:33;;;;;;;15.23;14.30;;;27.10;99.90;;;;;;5070724;28;20518;-46
2023/07/13 09:12:07;;;;;;;14.70;14.00;;;27.40;99.90;;;;;;5081199;28;20470;-51
2023/07/13 09:14:47;;;;;;;15.10;14.40;;;27.30;99.90;;;;;;5081032;28;20633;-43
2023/07/13 09:17:41;;;;;;;14.07;13.40;;;27.10;99.90;;;;;;5074913;28;20740;-45
2023/07/13 09:20:28;;;;;;;14.37;13.57;;;27.30;99.90;;;;;;5076684;28;20834;-45
2023/07/13 09:22:54;;;;;;;13.87;13.17;;;27.40;99.90;;;;;;5080910;28;20445;-50
2023/07/13 09:25:23;;;;;;;14.27;13.47;;;27.60;99.90;;;;;;5080398;28;20465;-45
2023/07/13 09:27:51;;;;;;;14.10;13.30;;;27.90;99.90;;;;;;5078724;28;20621;-45
2023/07/13 09:30:16;;;;;;;14.43;13.73;;;28.00;99.90;;;;;;5075876;28;20416;-47
2023/07/13 09:32:50;;;;;;;13.90;13.20;;;27.90;99.90;;;;;;5079377;28;20534;-44
2023/07/13 09:35:21;;;;;;;14.97;14.20;;;27.60;99.90;;;;;;5080197;28;20714;-47
2023/07/13 09:37:47;;;;;;;14.43;13.53;;;27.70;99.90;;;;;;5070325;28;20759;-48
2023/07/13 09:40:30;;;;;;;14.33;13.53;;;27.70;99.90;;;;;;5080477;28;20471;-44
2023/07/13 09:42:57;;;;;;;14.03;13.37;;;27.70;99.90;;;;;;5080383;28;20187;-45
2023/07/13 09:45:29;;;;;;;13.70;13.00;;;27.90;99.90;;;;;;5080058;28;20510;-47
2023/07/13 09:48:16;;;;;;;14.53;13.83;;;28.20;99.90;;;;;;5080343;28;20490;-47
2023/07/13 09:50:44;;;;;;;13.77;13.17;;;28.30;99.90;;;;;;5079986;28;20423;-44
2023/07/13 09:53:16;;;;;;;14.70;14.00;;;28.60;99.90;;;;;;5079855;28;20414;-45
2023/07/13 09:55:44;;;;;;;14.10;13.30;;;28.50;99.90;;;;;;5080369;28;20904;-50
2023/07/13 09:58:11;;;;;;;14.10;13.40;;;28.60;99.90;;;;;;5070920;28;20512;-46
2023/07/13 10:00:39;;;;;;;14.27;13.57;;;28.60;99.90;;;;;;5075623;28;20429;-47
2023/07/13 10:03:22;;;;;;;13.40;12.80;;;28.50;99.90;;;;;;5075584;28;20430;-46
2023/07/13 10:05:50;;;;;;;13.10;12.50;;;28.80;99.90;;;;;;5076824;28;20440;-47
2023/07/13 10:08:20;;;;;;;14.37;13.27;;;29.00;99.90;;;;;;5079918;28;20461;-44
2023/07/13 10:10:52;;;;;;;12.70;12.10;;;28.90;99.90;;;;;;5079924;28;20426;-44
2023/07/13 10:13:36;;;;;;;13.23;12.60;;;28.80;99.90;;;;;;5080078;28;20732;-47
2023/07/13 10:16:05;;;;;;;13.40;12.60;;;29.10;99.90;;;;;;5080413;28;20483;-43
2023/07/13 10:18:44;;;;;;;13.27;12.57;;;29.70;99.90;;;;;;5079725;28;20411;-45
2023/07/13 10:21:17;;;;;;;13.40;12.70;;;30.40;99.90;;;;;;5092472;28;20427;-45
2023/07/13 10:23:47;;;;;;;13.37;12.67;;;30.80;99.90;;;;;;5077728;28;21025;-49
2023/07/13 10:26:18;;;;;;;13.63;12.83;;;30.70;99.90;;;;;;5079143;28;20466;-47
2023/07/13 10:28:47;;;;;;;13.30;12.70;;;30.90;99.90;;;;;;5079051;28;20764;-47
2023/07/13 10:31:15;;;;;;;12.93;12.33;;;30.80;99.90;;;;;;5079461;28;20418;-49
2023/07/13 10:33:41;;;;;;;13.97;13.27;;;30.60;99.90;;;;;;5079577;28;20464;-45
2023/07/13 10:36:25;;;;;;;13.37;12.77;;;30.70;99.90;;;;;;5079276;28;20533;-45
2023/07/13 10:38:52;;;;;;;13.63;12.90;;;30.80;99.90;;;;;;5079455;28;20246;-46
2023/07/13 10:41:22;;;;;;;14.20;13.50;;;30.60;99.90;;;;;;5077818;28;20426;-46
2023/07/13 10:43:54;;;;;;;12.83;12.23;;;30.60;99.90;;;;;;5079743;28;20761;-46
2023/07/13 10:46:26;;;;;;;13.63;12.93;;;29.90;99.90;;;;;;5079209;28;20682;-44
2023/07/13 10:48:57;;;;;;;13.77;12.97;;;29.90;99.90;;;;;;5079241;28;20576;-47
2023/07/13 10:51:23;;;;;;;13.27;12.60;;;29.90;99.90;;;;;;5079126;28;20407;-44
2023/07/13 10:54:21;;;;;;;13.40;12.80;;;30.30;99.90;;;;;;5070597;28;20412;-46
2023/07/13 10:56:50;;;;;;;13.90;13.30;;;31.20;99.90;;;;;;5066910;28;20410;-47
2023/07/13 10:59:25;;;;;;;14.10;13.30;;;31.80;99.90;;;;;;5079293;28;20438;-46
2023/07/13 11:02:02;;;;;;;13.23;12.53;;;32.10;99.90;;;;;;5079133;28;20908;-46
2023/07/13 11:04:39;;;;;;;13.00;12.40;;;32.20;99.90;;;;;;5074289;28;20429;-44
2023/07/13 11:07:18;;;;;;;12.80;12.30;;;32.50;99.90;;;;;;5078900;28;20410;-50
2023/07/13 11:09:49;;;;;;;12.07;11.50;;;32.00;99.90;;;;;;5081414;28;20454;-45
2023/07/13 11:12:17;;;;;;;12.63;11.73;;;32.60;99.90;;;;;;5083397;28;20766;-47
2023/07/13 11:15:08;;;;;;;11.60;11.03;;;33.00;99.90;;;;;;5083105;28;20900;-44
2023/07/13 11:17:37;;;;;;;11.80;11.30;;;33.30;99.90;;;;;;5075360;28;20406;-49
2023/07/13 11:20:12;;;;;;;11.90;11.17;;;33.80;99.90;;;;;;5082497;28;20456;-48
2023/07/13 11:22:49;;;;;;;11.30;10.70;;;34.10;99.90;;;;;;5083121;28;20418;-47
2023/07/13 11:25:26;;;;;;;11.40;10.90;;;33.90;99.90;;;;;;5071909;28;20458;-47
2023/07/13 11:28:12;;;;;;;11.87;11.27;;;33.60;99.90;;;;;;5075559;28;20512;-51
2023/07/13 11:30:40;;;;;;;11.00;10.50;;;33.60;99.90;;;;;;5079811;28;20467;-47
2023/07/13 11:33:33;;;;;;;11.90;11.33;;;33.40;99.90;;;;;;5082607;28;20410;-48
2023/07/13 11:36:21;;;;;;;10.90;10.47;;;33.30;99.90;;;;;;5082884;28;20627;-45
2023/07/13 11:39:11;;;;;;;11.50;10.90;;;33.30;99.90;;;;;;5082706;28;20418;-50
2023/07/13 11:41:45;;;;;;;11.63;10.90;;;33.80;99.90;;;;;;5082827;28;20923;-50
2023/07/13 11:44:13;;;;;;;11.03;10.63;;;34.50;99.90;;;;;;5082521;28;20472;-45
2023/07/13 11:46:51;;;;;;;11.93;11.40;;;33.90;99.90;;;;;;5082447;28;20467;-47
2023/07/13 11:49:19;;;;;;;12.30;11.80;;;33.90;99.90;;;;;;5082792;28;20766;-45
2023/07/13 11:51:45;;;;;;;11.57;11.07;;;33.70;99.90;;;;;;5082434;28;20425;-45
2023/07/13 11:54:29;;;;;;;11.30;10.80;;;33.00;99.90;;;;;;5080714;28;20894;-49
2023/07/13 11:57:29;;;;;;;11.83;11.30;;;32.80;99.90;;;;;;5077810;28;21011;-49
2023/07/13 11:59:55;;;;;;;12.97;12.27;;;32.90;99.90;;;;;;5069860;28;20843;-47
2023/07/13 12:02:32;;;;;;;11.90;11.40;;;32.60;99.90;;;;;;5073254;28;20464;-51
2023/07/13 12:05:00;;;;;;;11.73;11.13;;;33.00;99.90;;;;;;5081462;28;20527;-43
2023/07/13 12:07:30;;;;;;;12.73;12.20;;;33.30;99.90;;;;;;5082630;28;21247;-47
2023/07/13 12:10:18;;;;;;;12.57;12.07;;;33.70;99.90;;;;;;5082181;28;20422;-44
2023/07/13 12:12:58;;;;;;;11.47;10.87;;;32.30;99.90;;;;;;5072798;28;20921;-51
2023/07/13 12:15:40;;;;;;;11.80;11.20;;;32.10;99.90;;;;;;5073964;28;20414;-47
2023/07/13 12:18:19;;;;;;;12.77;12.17;;;32.30;99.90;;;;;;5081934;28;20426;-45
2023/07/13 12:20:46;;;;;;;12.40;11.80;;;32.60;99.90;;;;;;5082421;28;20510;-51
2023/07/13 12:23:32;;;;;;;11.83;11.27;;;32.80;99.90;;;;;;5081824;28;20968;-47
2023/07/13 12:26:00;;;;;;;10.50;10.10;;;33.50;99.90;;;;;;5080554;28;20570;-49
2023/07/13 12:28:36;;;;;;;10.90;10.33;;;34.40;99.90;;;;;;5081899;28;20949;-45
2023/07/13 12:31:06;;;;;;;12.17;11.63;;;35.10;99.90;;;;;;5082045;28;20402;-49
2023/07/13 12:33:33;;;;;;;13.00;11.90;;;35.40;99.90;;;;;;5076553;28;20512;-47
2023/07/13 12:36:05;;;;;;;12.20;11.70;;;35.50;99.90;;;;;;5080351;28;20552;-47
2023/07/13 12:38:32;;;;;;;12.77;12.17;;;35.30;99.90;;;;;;5081396;28;20924;-47